createdAt,value
2018-03-02T00:00:56.023Z,12.67
2018-03-02T00:03:24.496Z,12.90
2018-03-02T00:05:52.207Z,14.00
2018-03-02T00:08:19.875Z,13.10
2018-03-02T00:10:47.598Z,12.17
2018-03-02T00:13:15.264Z,12.70
2018-03-02T00:15:42.968Z,10.93
2018-03-02T00:18:10.655Z,14.83
2018-03-02T00:20:38.376Z,10.10
2018-03-02T00:23:06.083Z,10.60
2018-03-02T00:25:34.560Z,15.30
2018-03-02T00:28:02.991Z,11.47
2018-03-02T00:30:30.698Z,13.67
2018-03-02T00:32:59.142Z,12.47
2018-03-02T00:35:28.396Z,13.62
2018-03-02T00:37:56.084Z,10.30
2018-03-02T00:40:23.804Z,11.30
2018-03-02T00:42:52.238Z,7.70
2018-03-02T00:45:19.967Z,12.55
2018-03-02T00:47:47.637Z,9.60
2018-03-02T00:50:15.367Z,13.60
2018-03-02T00:52:43.867Z,13.80
2018-03-02T00:55:11.580Z,11.27
2018-03-02T00:57:39.295Z,12.70
2018-03-02T01:00:07.002Z,9.93
2018-03-02T01:02:34.671Z,13.97
2018-03-02T01:05:03.208Z,12.27
2018-03-02T01:07:30.878Z,12.20
2018-03-02T01:09:58.555Z,14.70
2018-03-02T01:12:26.319Z,10.10
2018-03-02T01:14:53.999Z,10.95
2018-03-02T01:17:22.534Z,15.07
2018-03-02T01:19:50.191Z,8.65
2018-03-02T01:22:17.919Z,9.07
2018-03-02T01:24:45.639Z,10.63
2018-03-02T01:27:13.367Z,6.82
2018-03-02T01:29:41.040Z,9.43
2018-03-02T01:32:08.767Z,11.27
2018-03-02T01:34:36.438Z,9.37
2018-03-02T01:37:04.151Z,12.90
2018-03-02T01:39:32.592Z,13.15
2018-03-02T01:42:00.303Z,12.83
2018-03-02T01:44:27.980Z,12.65
2018-03-02T01:46:55.711Z,7.57
2018-03-02T01:49:24.154Z,12.05
2018-03-02T01:51:51.876Z,11.80
2018-03-02T01:54:19.549Z,12.20
2018-03-02T01:56:47.271Z,12.00
2018-03-02T01:59:15.709Z,9.88
2018-03-02T02:01:44.191Z,7.30
2018-03-02T02:04:11.881Z,11.85
2018-03-02T02:06:40.359Z,12.20
2018-03-02T02:09:08.799Z,11.82
2018-03-02T02:11:36.509Z,11.93
2018-03-02T02:14:04.963Z,13.00
2018-03-02T02:16:32.674Z,12.43
2018-03-02T02:19:00.351Z,10.35
2018-03-02T02:21:28.059Z,12.50
2018-03-02T02:23:56.503Z,13.13
2018-03-02T02:26:24.215Z,9.45
2018-03-02T02:29:01.907Z,12.05
2018-03-02T02:31:29.623Z,10.30
2018-03-02T02:33:57.300Z,6.53
2018-03-02T02:36:25.021Z,12.50
2018-03-02T02:38:52.699Z,11.10
2018-03-02T02:41:20.408Z,11.07
2018-03-02T02:43:48.079Z,12.35
2018-03-02T02:46:15.799Z,12.90
2018-03-02T02:48:43.471Z,12.68
2018-03-02T02:51:11.963Z,11.57
2018-03-02T02:53:39.638Z,9.35
2018-03-02T02:56:07.359Z,13.23
2018-03-02T02:58:35.032Z,6.25
2018-03-02T03:01:03.574Z,11.03
2018-03-02T03:03:31.265Z,10.15
2018-03-02T03:05:59.751Z,11.05
2018-03-02T03:08:28.189Z,13.23
2018-03-02T03:10:55.899Z,13.15
2018-03-02T03:13:23.576Z,15.00
2018-03-02T03:15:51.300Z,13.40
2018-03-02T03:18:19.736Z,13.27
2018-03-02T03:20:47.454Z,8.90
2018-03-02T03:23:15.888Z,9.85
2018-03-02T03:25:43.602Z,13.50
2018-03-02T03:28:11.283Z,13.57
2018-03-02T03:30:39.059Z,5.35
2018-03-02T03:33:06.735Z,12.23
2018-03-02T03:35:34.406Z,12.32
2018-03-02T03:38:02.130Z,7.03
2018-03-02T03:40:29.810Z,12.73
2018-03-02T03:42:57.527Z,13.18
2018-03-02T03:45:25.211Z,11.95
2018-03-02T03:47:52.922Z,8.45
2018-03-02T03:50:21.354Z,11.35
2018-03-02T03:52:49.070Z,14.40
2018-03-02T03:55:17.511Z,13.75
2018-03-02T03:57:45.223Z,14.00
2018-03-02T04:00:12.911Z,11.02
2018-03-02T04:02:40.619Z,10.02
2018-03-02T04:05:09.054Z,15.90
2018-03-02T04:07:36.810Z,14.60
2018-03-02T04:10:04.488Z,10.85
2018-03-02T04:12:32.203Z,12.40
2018-03-02T04:14:59.874Z,14.55
2018-03-02T04:17:27.600Z,14.30
2018-03-02T04:19:56.034Z,13.07
2018-03-02T04:22:23.744Z,10.25
2018-03-02T04:24:52.182Z,13.88
2018-03-02T04:27:19.895Z,11.18
2018-03-02T04:29:47.590Z,8.98
2018-03-02T04:32:15.310Z,12.25
2018-03-02T04:34:42.979Z,9.65
2018-03-02T04:37:10.703Z,15.00
2018-03-02T04:39:38.375Z,13.90
2018-03-02T04:42:06.859Z,11.90
2018-03-02T04:44:35.297Z,14.68
2018-03-02T04:47:03.007Z,14.15
2018-03-02T04:49:30.674Z,14.38
2018-03-02T04:51:58.407Z,13.95
2018-03-02T04:54:26.882Z,12.60
2018-03-02T04:56:54.604Z,12.75
2018-03-02T04:59:22.276Z,13.77
2018-03-02T05:01:49.995Z,11.48
2018-03-02T05:04:17.666Z,14.38
2018-03-02T05:06:45.384Z,13.65
2018-03-02T05:09:13.823Z,11.80
2018-03-02T05:11:41.532Z,14.73
2018-03-02T05:14:09.974Z,14.40
2018-03-02T05:16:37.723Z,11.02
2018-03-02T05:19:06.154Z,15.70
2018-03-02T05:21:34.631Z,12.02
2018-03-02T05:24:02.357Z,14.82
2018-03-02T05:26:30.080Z,14.65
2018-03-02T05:28:57.757Z,11.38
2018-03-02T05:31:25.476Z,14.85
2018-03-02T05:33:53.909Z,12.18
2018-03-02T05:36:21.615Z,13.15
2018-03-02T05:38:49.270Z,9.43
2018-03-02T05:41:17.738Z,13.80
2018-03-02T05:43:46.171Z,13.40
2018-03-02T05:46:13.884Z,13.62
2018-03-02T05:48:42.318Z,13.98
2018-03-02T05:51:10.024Z,13.10
2018-03-02T05:53:38.461Z,13.43
2018-03-02T05:56:06.134Z,14.43
2018-03-02T05:58:33.846Z,14.65
2018-03-02T06:01:01.515Z,15.20
2018-03-02T06:03:29.226Z,15.00
2018-03-02T06:05:56.896Z,12.77
2018-03-02T06:08:25.371Z,15.10
2018-03-02T06:10:53.811Z,12.43
2018-03-02T06:13:21.518Z,12.50
2018-03-02T06:15:49.958Z,11.27
2018-03-02T06:18:17.678Z,6.75
2018-03-02T06:20:45.350Z,12.65
2018-03-02T06:23:13.066Z,8.45
2018-03-02T06:25:41.499Z,14.63
2018-03-02T06:28:09.207Z,11.35
2018-03-02T06:30:37.645Z,12.65
2018-03-02T06:33:05.352Z,13.90
2018-03-02T06:35:33.786Z,10.43
2018-03-02T06:38:01.498Z,9.57
2018-03-02T06:40:29.166Z,13.88
2018-03-02T06:42:56.887Z,14.45
2018-03-02T06:45:24.559Z,15.73
2018-03-02T06:47:53.040Z,11.60
2018-03-02T06:50:21.471Z,12.65
2018-03-02T06:52:49.979Z,14.60
2018-03-02T06:55:17.647Z,13.73
2018-03-02T06:57:46.115Z,9.18
2018-03-02T07:00:13.791Z,10.65
2018-03-02T07:02:42.355Z,14.15
2018-03-02T07:05:10.059Z,12.40
2018-03-02T07:07:37.771Z,11.40
2018-03-02T07:10:05.439Z,6.93
2018-03-02T07:12:33.145Z,7.30
2018-03-02T07:15:00.807Z,8.25
2018-03-02T07:17:28.510Z,8.07
2018-03-02T07:19:56.188Z,10.52
2018-03-02T07:22:24.671Z,13.80
2018-03-02T07:24:53.098Z,9.68
2018-03-02T07:27:20.828Z,6.72
2018-03-02T07:29:48.554Z,14.80
2018-03-02T07:32:16.302Z,10.15
2018-03-02T07:34:43.979Z,12.90
2018-03-02T07:37:11.700Z,11.55
2018-03-02T07:39:39.370Z,10.77
2018-03-02T07:42:07.075Z,7.72
2018-03-02T07:44:35.511Z,12.10
2018-03-02T07:47:03.224Z,12.63
2018-03-02T07:49:30.910Z,6.40
2018-03-02T07:51:58.617Z,7.87
2018-03-02T07:54:27.050Z,8.93
2018-03-02T07:56:54.772Z,10.90
2018-03-02T07:59:23.277Z,14.70
2018-03-02T08:01:51.015Z,15.73
2018-03-02T08:04:19.528Z,15.95
2018-03-02T08:06:47.255Z,15.75
2018-03-02T08:09:15.731Z,12.90
2018-03-02T08:11:44.172Z,12.82
2018-03-02T08:14:11.895Z,13.45
2018-03-02T08:16:39.559Z,14.40
2018-03-02T08:19:07.270Z,10.63
2018-03-02T08:21:35.715Z,12.90
2018-03-02T08:24:03.436Z,14.20
2018-03-02T08:26:31.099Z,12.75
2018-03-02T08:28:58.807Z,14.80
2018-03-02T08:31:26.470Z,15.70
2018-03-02T08:33:54.179Z,14.90
2018-03-02T08:36:22.670Z,16.13
2018-03-02T08:38:50.435Z,16.17
2018-03-02T08:41:18.130Z,15.83
2018-03-02T08:43:45.835Z,14.23
2018-03-02T08:46:14.281Z,16.87
2018-03-02T08:48:41.987Z,15.43
2018-03-02T08:51:09.652Z,13.77
2018-03-02T08:53:37.363Z,15.67
2018-03-02T08:56:05.033Z,11.98
2018-03-02T08:58:33.471Z,5.70
2018-03-02T09:01:01.216Z,15.80
2018-03-02T09:03:28.922Z,15.77
2018-03-02T09:05:56.627Z,15.50
2018-03-02T09:08:24.279Z,9.93
2018-03-02T09:10:51.986Z,14.43
2018-03-02T09:13:20.460Z,16.00
2018-03-02T09:15:48.392Z,14.23
2018-03-02T09:18:16.063Z,10.23
2018-03-02T09:20:43.788Z,15.60
2018-03-02T09:23:12.224Z,15.90
2018-03-02T09:25:39.968Z,13.23
2018-03-02T09:28:07.663Z,16.97
2018-03-02T09:30:35.387Z,17.13
2018-03-02T09:33:03.050Z,28.03
2018-03-02T09:35:30.760Z,18.60
2018-03-02T09:37:59.293Z,16.53
2018-03-02T09:40:27.032Z,13.93
2018-03-02T09:42:54.695Z,16.60
2018-03-02T09:45:22.403Z,9.97
2018-03-02T09:47:50.070Z,16.10
2018-03-02T09:50:17.816Z,15.10
2018-03-02T09:52:45.482Z,16.63
2018-03-02T09:55:13.143Z,17.90
2018-03-02T09:57:40.883Z,15.90
2018-03-02T10:00:08.556Z,16.50
2018-03-02T10:02:36.296Z,10.47
2018-03-02T10:05:04.002Z,15.80
2018-03-02T10:07:32.471Z,15.97
2018-03-02T10:10:00.135Z,12.60
2018-03-02T10:12:28.603Z,15.63
2018-03-02T10:14:56.284Z,15.70
2018-03-02T10:17:24.758Z,15.20
2018-03-02T10:19:53.218Z,15.80
2018-03-02T10:22:20.927Z,16.80
2018-03-02T10:24:48.582Z,18.20
2018-03-02T10:27:16.295Z,17.17
2018-03-02T10:29:43.963Z,11.73
2018-03-02T10:32:11.688Z,15.73
2018-03-02T10:34:39.355Z,18.43
2018-03-02T10:37:07.016Z,17.20
2018-03-02T10:39:34.723Z,17.80
2018-03-02T10:42:03.158Z,17.07
2018-03-02T10:44:30.880Z,17.40
2018-03-02T10:46:58.542Z,18.57
2018-03-02T10:49:26.243Z,15.07
2018-03-02T10:51:53.915Z,16.90
2018-03-02T10:54:21.623Z,16.30
2018-03-02T10:56:49.290Z,16.57
2018-03-02T10:59:16.999Z,15.83
2018-03-02T11:01:50.475Z,16.80
2018-03-02T11:04:18.187Z,15.53
2018-03-02T11:06:45.859Z,16.67
2018-03-02T11:09:13.586Z,17.37
2018-03-02T11:11:42.015Z,17.80
2018-03-02T11:14:09.790Z,14.40
2018-03-02T11:16:37.486Z,16.50
2018-03-02T11:19:06.028Z,15.43
2018-03-02T11:21:33.724Z,15.77
2018-03-02T11:24:02.191Z,16.20
2018-03-02T11:26:29.854Z,16.73
2018-03-02T11:28:58.380Z,17.30
2018-03-02T11:31:26.090Z,12.70
2018-03-02T11:33:53.818Z,14.40
2018-03-02T11:36:21.569Z,18.20
2018-03-02T11:38:49.311Z,18.40
2018-03-02T11:41:16.991Z,17.40
2018-03-02T11:43:44.696Z,18.30
2018-03-02T11:46:12.367Z,16.40
2018-03-02T11:48:40.839Z,19.40
2018-03-02T11:51:09.271Z,18.50
2018-03-02T11:53:37.011Z,17.90
2018-03-02T11:56:04.691Z,17.23
2018-03-02T11:58:32.398Z,18.13
2018-03-02T12:01:00.942Z,18.03
2018-03-02T12:03:28.859Z,17.57
2018-03-02T12:05:56.541Z,17.83
2018-03-02T12:08:24.263Z,15.97
2018-03-02T12:10:52.744Z,18.50
2018-03-02T12:13:21.190Z,18.10
2018-03-02T12:15:48.910Z,16.03
2018-03-02T12:18:16.579Z,19.10
2018-03-02T12:20:44.368Z,18.30
2018-03-02T12:23:12.027Z,18.33
2018-03-02T12:25:39.730Z,18.87
2018-03-02T12:28:08.157Z,18.70
2018-03-02T12:30:35.871Z,17.30
2018-03-02T12:33:03.535Z,20.77
2018-03-02T12:35:31.265Z,16.77
2018-03-02T12:37:59.138Z,19.10
2018-03-02T12:40:27.617Z,18.90
2018-03-02T12:42:56.047Z,18.87
2018-03-02T12:45:23.767Z,21.20
2018-03-02T12:47:52.197Z,18.57
2018-03-02T12:50:19.915Z,18.30
2018-03-02T12:52:47.569Z,19.83
2018-03-02T12:55:15.323Z,18.53
2018-03-02T12:57:43.743Z,18.90
2018-03-02T13:00:12.219Z,19.33
2018-03-02T13:02:39.878Z,19.80
2018-03-02T13:05:07.579Z,16.70
2018-03-02T13:07:35.362Z,19.13
2018-03-02T13:10:03.874Z,18.57
2018-03-02T13:12:31.538Z,18.70
2018-03-02T13:14:59.395Z,18.77
2018-03-02T13:17:27.060Z,19.73
2018-03-02T13:19:54.768Z,19.20
2018-03-02T13:22:35.126Z,19.67
2018-03-02T13:25:03.611Z,18.03
2018-03-02T13:27:43.859Z,18.20
2018-03-02T13:30:12.367Z,21.23
2018-03-02T13:32:40.027Z,18.20
2018-03-02T13:35:11.713Z,17.40
2018-03-02T13:37:39.378Z,19.47
2018-03-02T13:40:19.703Z,18.50
2018-03-02T13:42:47.456Z,20.37
2018-03-02T13:45:15.914Z,19.23
2018-03-02T13:50:56.260Z,17.80
2018-03-02T13:53:23.922Z,18.23
2018-03-02T13:55:51.640Z,18.80
2018-03-02T13:58:19.353Z,19.60
2018-03-02T14:00:47.070Z,19.47
2018-03-02T14:03:26.554Z,18.50
2018-03-02T14:05:55.030Z,18.90
2018-03-02T14:08:23.479Z,18.20
2018-03-02T14:10:51.184Z,18.37
2018-03-02T14:13:19.647Z,18.70
2018-03-02T14:15:48.128Z,19.63
2018-03-02T14:18:16.598Z,19.13
2018-03-02T14:20:44.307Z,20.77
2018-03-02T14:23:11.979Z,20.90
2018-03-02T14:25:39.748Z,19.50
2018-03-02T14:28:07.418Z,20.40
2018-03-02T14:30:35.138Z,21.30
2018-03-02T14:33:02.812Z,19.60
2018-03-02T14:35:30.519Z,19.60
2018-03-02T14:37:58.179Z,19.93
2018-03-02T14:40:25.896Z,19.63
2018-03-02T14:42:53.555Z,20.47
2018-03-02T14:45:21.263Z,19.30
2018-03-02T14:47:48.926Z,19.87
2018-03-02T14:50:17.416Z,20.17
2018-03-02T14:52:45.112Z,18.93
2018-03-02T14:55:12.791Z,19.90
2018-03-02T14:57:40.500Z,20.03
2018-03-02T15:00:08.186Z,19.50
2018-03-02T15:02:35.889Z,19.53
2018-03-02T15:05:03.621Z,20.70
2018-03-02T15:07:32.147Z,19.50
2018-03-02T15:10:00.602Z,18.60
2018-03-02T15:12:28.315Z,21.60
2018-03-02T15:14:55.975Z,20.90
2018-03-02T15:17:23.687Z,20.73
2018-03-02T15:19:51.390Z,19.20
2018-03-02T15:22:19.090Z,18.77
2018-03-02T15:24:46.759Z,19.77
2018-03-02T15:27:14.464Z,18.30
2018-03-02T15:29:42.135Z,19.27
2018-03-02T15:32:09.844Z,20.00
2018-03-02T15:34:37.502Z,21.07
2018-03-02T15:37:05.211Z,20.30
2018-03-02T15:39:32.880Z,19.00
2018-03-02T15:42:00.649Z,19.20
2018-03-02T15:44:28.312Z,19.07
2018-03-02T15:46:56.061Z,19.30
2018-03-02T15:49:23.741Z,22.63
2018-03-02T15:51:51.450Z,18.77
2018-03-02T15:54:19.188Z,19.17
2018-03-02T15:56:46.896Z,19.40
2018-03-02T15:59:14.557Z,18.63
2018-03-02T16:01:42.275Z,19.30
2018-03-02T16:04:09.943Z,18.67
2018-03-02T16:06:38.455Z,18.60
2018-03-02T16:09:06.122Z,19.27
2018-03-02T16:11:33.832Z,19.93
2018-03-02T16:14:01.552Z,21.70
2018-03-02T16:16:29.215Z,19.53
2018-03-02T16:18:57.683Z,18.97
2018-03-02T16:21:25.379Z,19.73
2018-03-02T16:23:53.087Z,20.27
2018-03-02T16:26:20.753Z,20.13
2018-03-02T16:28:48.458Z,22.17
2018-03-02T16:31:16.172Z,22.37
2018-03-02T16:33:43.906Z,57.53
2018-03-02T16:36:12.328Z,19.27
2018-03-02T16:38:40.084Z,20.33
2018-03-02T16:41:07.775Z,20.90
2018-03-02T16:43:35.486Z,19.90
2018-03-02T16:46:03.154Z,19.87
2018-03-02T16:48:30.860Z,18.97
2018-03-02T16:50:58.598Z,20.33
2018-03-02T16:53:26.339Z,20.17
2018-03-02T16:55:54.008Z,22.17
2018-03-02T16:58:21.715Z,20.47
2018-03-02T17:00:50.151Z,22.70
2018-03-02T17:03:17.857Z,21.60
2018-03-02T17:05:46.293Z,25.50
2018-03-02T17:08:14.046Z,21.10
2018-03-02T17:10:41.715Z,20.13
2018-03-02T17:13:09.377Z,20.33
2018-03-02T17:15:37.099Z,19.40
2018-03-02T17:18:04.771Z,20.27
2018-03-02T17:20:32.479Z,20.30
2018-03-02T17:23:00.143Z,21.93
2018-03-02T17:25:28.614Z,20.93
2018-03-02T17:27:56.281Z,20.10
2018-03-02T17:30:23.990Z,21.77
2018-03-02T17:32:51.661Z,21.50
2018-03-02T17:35:19.367Z,20.10
2018-03-02T17:37:47.801Z,20.10
2018-03-02T17:40:15.503Z,23.77
2018-03-02T17:42:43.944Z,21.53
2018-03-02T17:45:11.675Z,21.03
2018-03-02T17:47:39.335Z,20.30
2018-03-02T17:50:07.044Z,20.70
2018-03-02T17:52:34.710Z,22.17
2018-03-02T17:55:02.467Z,23.80
2018-03-02T17:57:30.154Z,20.73
2018-03-02T17:59:58.625Z,22.00
2018-03-02T18:02:27.054Z,20.10
2018-03-02T18:04:54.758Z,21.47
2018-03-02T18:07:23.177Z,22.53
2018-03-02T18:09:50.883Z,21.90
2018-03-02T18:12:18.589Z,22.17
2018-03-02T18:14:46.295Z,21.53
2018-03-02T18:17:14.005Z,20.93
2018-03-02T18:19:41.671Z,21.83
2018-03-02T18:22:09.383Z,22.63
2018-03-02T18:24:37.060Z,23.63
2018-03-02T18:27:04.799Z,22.17
2018-03-02T18:29:32.460Z,25.60
2018-03-02T18:32:00.668Z,23.37
2018-03-02T18:34:28.901Z,21.90
2018-03-02T18:36:57.041Z,22.20
2018-03-02T18:39:28.017Z,21.83
2018-03-02T18:41:56.461Z,21.90
2018-03-02T18:44:25.360Z,22.50
2018-03-02T18:46:55.216Z,24.63
2018-03-02T18:49:24.348Z,21.93
2018-03-02T18:51:53.710Z,23.50
2018-03-02T18:54:22.218Z,21.40
2018-03-02T18:56:50.927Z,21.93
2018-03-02T18:59:20.429Z,22.90
2018-03-02T19:01:49.112Z,21.27
2018-03-02T19:04:18.586Z,21.00
2018-03-02T19:06:47.128Z,22.87
2018-03-02T19:09:16.401Z,21.87
2018-03-02T19:11:44.191Z,22.33
2018-03-02T19:14:13.479Z,19.87
2018-03-02T19:16:42.032Z,20.83
2018-03-02T19:19:11.004Z,22.70
2018-03-02T19:21:38.713Z,21.60
2018-03-02T19:24:07.146Z,21.27
2018-03-02T19:26:34.906Z,21.70
2018-03-02T19:29:02.603Z,20.23
2018-03-02T19:31:30.315Z,23.00
2018-03-02T19:33:57.974Z,20.47
2018-03-02T19:36:25.634Z,20.47
2018-03-02T19:38:53.356Z,22.20
2018-03-02T19:41:21.789Z,23.00
2018-03-02T19:43:49.494Z,23.20
2018-03-02T19:46:17.932Z,22.90
2018-03-02T19:48:45.642Z,23.03
2018-03-02T19:51:14.076Z,23.27
2018-03-02T19:53:41.791Z,25.10
2018-03-02T19:56:09.471Z,26.40
2018-03-02T19:58:37.183Z,26.07
2018-03-02T20:01:05.619Z,26.13
2018-03-02T20:03:33.323Z,23.23
2018-03-02T20:06:02.228Z,23.73
2018-03-02T20:08:29.933Z,23.67
2018-03-02T20:10:57.661Z,23.10
2018-03-02T20:13:25.371Z,23.30
2018-03-02T20:15:53.040Z,24.87
2018-03-02T20:18:20.747Z,22.93
2018-03-02T20:20:48.462Z,22.80
2018-03-02T20:23:17.034Z,21.23
2018-03-02T20:25:44.708Z,23.47
2018-03-02T20:28:13.204Z,22.97
2018-03-02T20:30:41.679Z,26.27
2018-03-02T20:33:10.174Z,24.10
2018-03-02T20:35:37.859Z,24.83
2018-03-02T20:38:05.599Z,25.10
2018-03-02T20:40:33.283Z,23.37
2018-03-02T20:43:00.998Z,26.50
2018-03-02T20:45:29.483Z,25.43
2018-03-02T20:47:57.978Z,23.83
2018-03-02T20:50:25.699Z,24.10
2018-03-02T20:52:53.379Z,25.60
2018-03-02T20:55:21.864Z,25.07
2018-03-02T20:57:49.529Z,25.83
2018-03-02T21:00:17.298Z,24.30
2018-03-02T21:02:45.025Z,25.60
2018-03-02T21:05:12.772Z,24.73
2018-03-02T21:07:40.444Z,23.33
2018-03-02T21:10:08.186Z,24.93
2018-03-02T21:12:35.862Z,25.93
2018-03-02T21:15:04.401Z,27.77
2018-03-02T21:17:32.103Z,27.47
2018-03-02T21:19:59.811Z,25.67
2018-03-02T21:22:27.484Z,24.33
2018-03-02T21:24:55.196Z,25.57
2018-03-02T21:27:23.623Z,26.53
2018-03-02T21:29:51.335Z,25.87
2018-03-02T21:32:19.771Z,27.50
2018-03-02T21:34:47.484Z,26.23
2018-03-02T21:37:15.148Z,29.33
2018-03-02T21:39:42.871Z,26.73
2018-03-02T21:42:10.543Z,27.57
2018-03-02T21:44:39.018Z,26.73
2018-03-02T21:47:06.683Z,26.40
2018-03-02T21:49:35.110Z,28.87
2018-03-02T21:52:02.867Z,29.77
2018-03-02T21:54:30.527Z,28.50
2018-03-02T21:56:58.243Z,27.80
2018-03-02T21:59:26.671Z,31.30
2018-03-02T22:01:54.408Z,34.47
2018-03-02T22:04:22.124Z,31.37
2018-03-02T22:06:49.888Z,29.00
2018-03-02T22:09:17.566Z,31.20
2018-03-02T22:11:46.057Z,30.37
2018-03-02T22:14:13.754Z,31.20
2018-03-02T22:16:41.471Z,32.37
2018-03-02T22:19:09.903Z,32.50
2018-03-02T22:21:37.611Z,31.70
2018-03-02T22:24:06.050Z,30.33
2018-03-02T22:26:33.755Z,31.23
2018-03-02T22:29:01.427Z,31.47
2018-03-02T22:31:29.986Z,31.13
2018-03-02T22:33:58.419Z,31.80
2018-03-02T22:36:26.118Z,32.37
2018-03-02T22:38:54.548Z,30.83
2018-03-02T22:41:22.251Z,33.10
2018-03-02T22:43:50.679Z,34.00
2018-03-02T22:46:18.395Z,34.80
2018-03-02T22:48:46.824Z,36.97
2018-03-02T22:51:14.491Z,37.30
2018-03-02T22:53:42.205Z,31.80
2018-03-02T22:56:09.866Z,30.90
2018-03-02T22:58:37.568Z,33.53
2018-03-02T23:01:05.236Z,32.03
2018-03-02T23:03:32.952Z,32.80
2018-03-02T23:06:00.618Z,34.10
2018-03-02T23:08:28.330Z,35.03
2018-03-02T23:10:55.987Z,34.77
2018-03-02T23:13:23.691Z,32.03
2018-03-02T23:15:51.354Z,33.90
2018-03-02T23:18:19.086Z,34.03
2018-03-02T23:20:47.514Z,32.43
2018-03-02T23:23:15.216Z,32.60
2018-03-02T23:25:42.883Z,32.83
2018-03-02T23:28:11.351Z,32.00
2018-03-02T23:30:39.011Z,34.67
2018-03-02T23:33:06.717Z,35.87
2018-03-02T23:35:34.382Z,34.97
2018-03-02T23:38:02.099Z,32.87
2018-03-02T23:40:30.530Z,33.83
2018-03-02T23:42:58.239Z,34.57
2018-03-02T23:45:26.667Z,32.43
2018-03-02T23:47:54.428Z,33.97
2018-03-02T23:50:22.114Z,36.30
2018-03-02T23:52:49.836Z,33.77
2018-03-02T23:55:17.503Z,30.40
2018-03-02T23:57:45.167Z,34.83
